Latest Coastal Weather Observations for Alva Beach

IDQ60701

Issued at 4:22 am EST Friday 29 July 2016 (issued every 10 minutes, with the page automatically refreshed every 10 minutes)

About coastal observations | Map of coastal stations | Coastal observations for QLD | Marine services | Other Formats
Station Details ID: 033295 Name: ALVA BEACH Lat: -19.46 Lon: 147.48 Height: 7.5 m
Data from the previous 72 hours. | See also: Recent months at Alva Beach
Date/Time
EST
Temp
°C
Wind Pressure Rain since
9am
mm
Weather Cloud Vis
km
Sea
Height
m
Swell
Dir  Spd
kts
Gust
kts
hPa Trend Height
m
Period
s
Dir
29/04:00am 13.0 SSW 6 9 1018.8 - 0.0 - - - - - - -
29/03:30am 12.9 SSW 5 7 1018.9 - 0.0 - - - - - - -
29/03:00am 13.4 SSW 5 8 1019.0 - 0.0 - - - - - - -
29/02:30am 13.8 SSW 6 8 1019.1 - 0.0 - - - - - - -
29/02:00am 14.0 SSW 6 9 1019.2 - 0.0 - - - - - - -
29/01:30am 14.4 SSW 6 9 1019.3 - 0.0 - - - - - - -
29/01:00am 15.1 SSW 6 8 1019.6 - 0.0 - - - - - - -
29/12:30am 16.0 S 5 8 1019.8 - 0.0 - - - - - - -
29/12:00am 16.6 S 4 6 1020.0 - 0.0 - - - - - - -
 
Date/Time
EST
Temp
°C
Wind Pressure Rain since
9am
mm
Weather Cloud Vis
km
Sea
Height
m
Swell
Dir  Spd
kts
Gust
kts
hPa Trend Height
m
Period
s
Dir
28/11:30pm 19.6 SE 9 17 1020.2 - 0.0 - - - - - - -
28/11:00pm 19.7 SE 7 13 1020.5 - 0.0 - - - - - - -
28/10:30pm 20.3 SE 10 19 1020.5 - 0.0 - - - - - - -
28/10:00pm 20.5 ESE 11 17 1020.5 - 0.0 - - - - - - -
28/09:30pm 20.7 ESE 11 17 1020.4 - 0.0 - - - - - - -
28/09:00pm 20.9 ESE 11 19 1020.3 - 0.0 - - - - - - -
28/08:30pm 21.2 ESE 12 19 1020.1 - 0.0 - - - - - - -
28/08:00pm 21.0 ESE 11 17 1019.8 - 0.0 - - - - - - -
28/07:30pm 21.3 E 13 19 1019.6 - 0.0 - - - - - - -
28/07:00pm 21.5 E 13 18 1019.3 - 0.0 - - - - - - -
28/06:30pm 21.5 E 13 17 1018.9 - 0.0 - - - - - - -
28/06:00pm 21.7 E 13 18 1018.7 - 0.0 - - - - - - -
28/05:30pm 21.8 E 13 18 1018.5 - 0.0 - - - - - - -
28/05:00pm 22.1 E 13 18 1018.4 - 0.0 - - - - - - -
28/04:30pm 22.6 E 12 17 1018.2 - 0.0 - - - - - - -
28/04:00pm 23.1 E 13 16 1018.0 - 0.0 - - - - - - -
28/03:30pm 23.4 E 12 18 1018.1 - 0.0 - - - - - - -
28/03:00pm 23.4 E 13 17 1018.1 - 0.0 - - - - - - -
28/02:30pm 23.4 E 12 17 1018.2 - 0.0 - - - - - - -
28/02:00pm 24.0 E 11 16 1018.2 - 0.0 - - - - - - -
28/01:30pm 24.4 E 9 13 1018.6 - 0.0 - - - - - - -
28/01:00pm 24.4 E 9 13 1019.1 - 0.0 - - - - - - -
28/12:30pm 24.2 ESE 9 15 1019.5 - 0.0 - - - - - - -
28/12:00pm 23.9 ESE 10 16 1019.9 - 0.0 - - - - - - -
28/11:30am 23.1 SE 10 17 1020.3 - 0.0 - - - - - - -
28/11:00am 22.6 SE 9 15 1020.7 - 0.0 - - - - - - -
28/10:30am 22.5 SE 7 12 1021.0 - 0.0 - - - - - - -
28/10:00am 22.0 SE 8 15 1021.1 - 0.0 - - - - - - -
28/09:30am 21.3 SSE 6 10 1021.3 - 0.0 - - - - - - -
28/09:00am 19.9 S 6 10 1021.2 - 0.0 - - - - - - -
28/08:30am 18.9 S 6 10 1021.1 - 0.0 - - - - - - -
28/08:00am 17.5 SSW 7 11 1020.8 - 0.0 - - - - - - -
28/07:30am 16.2 SSW 5 9 1020.4 - 0.0 - - - - - - -
28/07:00am 15.3 SSW 5 8 1020.2 - 0.0 - - - - - - -
28/06:30am 15.5 SSW 6 9 1020.0 - 0.0 - - - - - - -
28/06:00am 15.6 SSW 6 8 1019.7 - 0.0 - - - - - - -
28/05:30am 15.8 SSW 5 7 1019.7 - 0.0 - - - - - - -
28/05:00am 16.5 SSW 5 9 1019.3 - 0.0 - - - - - - -
28/04:30am 16.2 SSW 4 6 1019.2 - 0.0 - - - - - - -
28/04:00am 17.0 SSW 5 7 1019.2 - 0.0 - - - - - - -
28/03:30am 17.6 SSW 5 7 1019.2 - 0.0 - - - - - - -
28/03:00am 17.7 SSW 6 7 1019.4 - 0.0 - - - - - - -
28/02:30am 17.9 SSW 5 6 1019.5 - 0.0 - - - - - - -
28/02:00am 18.4 SSW 5 7 1019.4 - 0.0 - - - - - - -
28/01:30am 19.1 S 5 8 1019.5 - 0.0 - - - - - - -
28/01:00am 19.4 S 5 9 1019.7 - 0.0 - - - - - - -
28/12:30am 19.6 S 5 8 1019.7 - 0.0 - - - - - - -
28/12:00am 20.4 S 5 7 1019.7 - 0.0 - - - - - - -
 
Date/Time
EST
Temp
°C
Wind Pressure Rain since
9am
mm
Weather Cloud Vis
km
Sea
Height
m
Swell
Dir  Spd
kts
Gust
kts
hPa Trend Height
m
Period
s
Dir
27/11:30pm 21.0 S 4 6 1019.6 - 0.0 - - - - - - -
27/11:00pm 22.6 SE 7 11 1019.7 - 0.0 - - - - - - -
27/10:30pm 23.1 SE 10 16 1019.5 - 0.0 - - - - - - -
27/10:00pm 22.8 ESE 8 13 1019.5 - 0.0 - - - - - - -
27/09:30pm 22.9 ESE 8 12 1019.2 - 0.0 - - - - - - -
27/09:00pm 23.0 ESE 6 9 1019.2 - 0.0 - - - - - - -
27/08:30pm 22.8 SE 4 8 1019.1 - 0.0 - - - - - - -
27/08:00pm 23.0 ESE 8 13 1018.6 - 0.0 - - - - - - -
27/07:30pm 23.3 E 10 13 1018.0 - 0.0 - - - - - - -
27/07:00pm 23.4 E 9 13 1017.5 - 0.0 - - - - - - -
27/06:30pm 23.4 E 8 11 1017.1 - 0.0 - - - - - - -
27/06:00pm 23.3 E 9 11 1016.7 - 0.0 - - - - - - -
27/05:30pm 23.4 ENE 9 12 1016.2 - 0.0 - - - - - - -
27/05:00pm 23.7 ENE 10 14 1015.9 - 0.0 - - - - - - -
27/04:30pm 24.0 ENE 13 15 1015.7 - 0.0 - - - - - - -
27/04:00pm 24.3 ENE 13 16 1015.5 - 0.0 - - - - - - -
27/03:30pm 24.7 ENE 11 14 1015.3 - 0.0 - - - - - - -
27/03:00pm 25.0 ENE 11 13 1015.3 - 0.0 - - - - - - -
27/02:30pm 25.0 ENE 12 14 1015.3 - 0.0 - - - - - - -
27/02:00pm 25.2 ENE 11 14 1015.7 - 0.0 - - - - - - -
27/01:30pm 25.3 ENE 10 13 1016.0 - 0.0 - - - - - - -
27/01:00pm 25.1 E 9 13 1016.4 - 0.0 - - - - - - -
27/12:30pm 26.1 ESE 8 13 1016.8 - 0.0 - - - - - - -
27/12:00pm 25.8 E 8 12 1017.0 - 0.0 - - - - - - -
27/11:30am 25.4 ESE 9 13 1017.4 - 0.0 - - - - - - -
27/11:00am 24.3 SE 8 12 1017.7 - 0.0 - - - - - - -
27/10:30am 23.5 ESE 8 15 1018.0 - 0.0 - - - - - - -
27/10:00am 24.0 ESE 7 11 1018.1 - 0.0 - - - - - - -
27/09:30am 23.8 SE 7 11 1018.4 - 0.0 - - - - - - -
27/09:00am 22.9 SE 6 10 1018.4 - 0.0 - - - - - - -
27/08:30am 21.5 S 5 8 1018.3 - 0.0 - - - - - - -
27/08:00am 19.9 SSE 5 10 1018.3 - 0.0 - - - - - - -
27/07:30am 18.5 SSW 7 11 1018.2 - 0.0 - - - - - - -
27/07:00am 17.7 SSW 6 10 1017.9 - 0.0 - - - - - - -
27/06:30am 18.0 SSW 5 8 1017.4 - 0.0 - - - - - - -
27/06:00am 19.1 SSW 4 7 1017.2 - 0.0 - - - - - - -
27/05:30am 21.6 SE 10 15 1016.8 - 0.0 - - - - - - -
27/05:00am 21.6 ESE 9 14 1016.3 - 0.0 - - - - - - -
27/04:30am 21.5 SE 9 14 1016.2 - 0.0 - - - - - - -
27/04:00am 21.5 SE 8 13 1016.6 - 0.0 - - - - - - -
27/03:30am 20.5 SE 6 11 1016.5 - 0.0 - - - - - - -
27/03:00am 21.9 SE 8 13 1016.6 - 0.0 - - - - - - -
27/02:30am 21.8 SE 7 11 1016.6 - 0.0 - - - - - - -
27/02:00am 21.8 ESE 6 11 1016.8 - 0.0 - - - - - - -
27/01:30am 21.8 ESE 7 11 1016.8 - 0.0 - - - - - - -
27/01:00am 21.8 ESE 7 11 1016.9 - 0.0 - - - - - - -
27/12:30am 22.2 ESE 7 12 1016.9 - 0.0 - - - - - - -
27/12:00am 22.3 ESE 9 14 1016.9 - 0.0 - - - - - - -
 
Date/Time
EST
Temp
°C
Wind Pressure Rain since
9am
mm
Weather Cloud Vis
km
Sea
Height
m
Swell
Dir  Spd
kts
Gust
kts
hPa Trend Height
m
Period
s
Dir
26/11:30pm 22.3 ESE 9 13 1016.9 - 0.0 - - - - - - -
26/11:00pm 22.4 E 10 14 1016.9 - 0.0 - - - - - - -
26/10:30pm 22.6 E 10 14 1016.8 - 0.0 - - - - - - -
26/10:00pm 22.9 E 10 15 1016.8 - 0.0 - - - - - - -
26/09:30pm 23.0 E 10 12 1016.7 - 0.0 - - - - - - -
26/09:00pm 23.0 E 8 11 1016.6 - 0.0 - - - - - - -
26/08:30pm 23.1 E 9 12 1016.4 - 0.0 - - - - - - -
26/08:00pm 23.3 E 9 12 1016.2 - 0.0 - - - - - - -
26/07:30pm 23.4 E 8 11 1016.0 - 0.0 - - - - - - -
26/07:00pm 23.5 E 8 11 1015.8 - 0.0 - - - - - - -
26/06:30pm 23.4 E 9 11 1015.5 - 0.0 - - - - - - -
26/06:00pm 23.3 E 8 11 1015.1 - 0.0 - - - - - - -
26/05:30pm 23.4 E 8 11 1015.0 - 0.0 - - - - - - -
26/05:00pm 23.7 E 8 12 1014.7 - 0.0 - - - - - - -
26/04:30pm 24.3 E 8 11 1014.5 - 0.0 - - - - - - -
26/04:00pm 24.1 E 9 12 1014.4 - 0.0 - - - - - - -
26/03:30pm 24.4 E 8 12 1014.4 - 0.0 - - - - - - -
26/03:00pm 24.9 E 8 11 1014.6 - 0.0 - - - - - - -
26/02:30pm 24.8 ESE 6 10 1014.9 - 0.0 - - - - - - -
26/02:00pm 24.3 E 9 14 1015.0 - 0.0 - - - - - - -
26/01:30pm 25.2 ESE 7 12 1015.4 - 0.0 - - - - - - -
26/01:00pm 25.2 E 7 12 1015.7 - 0.0 - - - - - - -
26/12:30pm 24.9 ESE 8 13 1016.2 - 0.0 - - - - - - -
26/12:00pm 25.0 ESE 7 12 1016.5 - 0.0 - - - - - - -
26/11:30am 24.8 ESE 8 13 1016.7 - 0.0 - - - - - - -
26/11:00am 24.5 SE 8 13 1017.1 - 0.0 - - - - - - -
26/10:30am 23.8 SE 9 13 1017.4 - 0.0 - - - - - - -
26/10:00am 23.5 SE 8 13 1017.6 - 0.0 - - - - - - -
26/09:30am 23.8 ESE 8 12 1017.8 - 0.0 - - - - - - -
26/09:00am 23.2 ESE 5 10 1017.5 - 0.0 - - - - - - -
26/08:30am 21.5 S 3 6 1017.4 - 0.0 - - - - - - -
26/08:00am 19.7 S 4 7 1017.2 - 0.0 - - - - - - -
26/07:30am 18.3 S 5 7 1016.9 - 0.0 - - - - - - -
26/07:00am 17.6 S 5 7 1016.5 - 0.0 - - - - - - -
26/06:30am 17.6 S 5 7 1016.3 - 0.0 - - - - - - -
26/06:00am 17.8 SSE 4 7 1016.0 - 0.0 - - - - - - -
26/05:30am 17.9 S 5 7 1015.9 - 0.0 - - - - - - -
26/05:00am 21.2 ESE 6 9 1015.8 - 0.0 - - - - - - -
26/04:30am 21.4 SE 6 10 1015.7 - 0.0 - - - - - - -

Other Formats:

Comma delimited format used in spreadsheet applications
http://www.bom.gov.au/fwo/IDQ60701/IDQ60701.95296.axf

JavaScript Object Notation format (JSON) in row-major order
http://www.bom.gov.au/fwo/IDQ60701/IDQ60701.95296.json